createdAt,value
2022-09-13T00:01:24.407Z,83.61
2022-09-13T00:16:27.136Z,80.53
2022-09-13T00:31:29.096Z,80.63
2022-09-13T00:46:39.913Z,81.10
2022-09-13T01:01:53.925Z,80.10
2022-09-13T01:16:55.428Z,80.23
2022-09-13T01:32:09.178Z,79.93
2022-09-13T01:47:13.758Z,80.46
2022-09-13T02:02:19.401Z,80.17
2022-09-13T02:17:23.680Z,80.28
2022-09-13T02:32:32.782Z,82.14
2022-09-13T02:47:40.052Z,83.31
2022-09-13T03:02:42.840Z,84.07
2022-09-13T03:17:50.213Z,81.79
2022-09-13T03:32:57.291Z,80.25
2022-09-13T03:47:59.220Z,78.33
2022-09-13T04:03:00.865Z,79.28
2022-09-13T04:18:02.357Z,79.51
2022-09-13T04:33:03.844Z,72.34
2022-09-13T04:48:05.361Z,66.15
2022-09-13T05:03:06.837Z,59.90
2022-09-13T05:18:08.492Z,54.90
2022-09-13T05:33:09.965Z,59.43
2022-09-13T05:48:11.918Z,60.74
2022-09-13T06:03:13.379Z,54.42
2022-09-13T06:18:14.937Z,49.37
2022-09-13T06:33:16.453Z,47.74
2022-09-13T06:48:18.359Z,46.38
2022-09-13T07:03:19.821Z,46.86
2022-09-13T07:18:21.512Z,44.72
2022-09-13T07:33:23.927Z,52.24
2022-09-13T07:48:29.454Z,45.60
2022-09-13T08:03:36.639Z,43.89
2022-09-13T08:18:38.082Z,44.91
2022-09-13T08:33:44.188Z,42.60
2022-09-13T08:48:49.940Z,42.18
2022-09-13T09:03:57.580Z,40.15
2022-09-13T09:19:04.046Z,37.56
2022-09-13T09:34:13.167Z,39.01
2022-09-13T09:49:53.042Z,35.71
2022-09-13T10:04:56.025Z,41.65
2022-09-13T10:20:03.305Z,34.53
2022-09-13T10:35:15.941Z,35.16
2022-09-13T10:50:23.362Z,35.22
2022-09-13T11:05:38.227Z,38.24
2022-09-13T11:20:52.929Z,36.76
2022-09-13T11:36:11.367Z,36.53
2022-09-13T11:51:15.808Z,37.56
2022-09-13T12:06:17.253Z,33.39
2022-09-13T12:21:25.128Z,37.82
2022-09-13T12:36:28.673Z,36.33
2022-09-13T12:51:33.043Z,39.23
2022-09-13T13:06:38.689Z,37.41
2022-09-13T13:21:40.609Z,39.62
2022-09-13T13:36:42.064Z,40.78
2022-09-13T13:51:43.507Z,42.52
2022-09-13T14:06:51.536Z,43.09
2022-09-13T14:22:12.115Z,42.84
2022-09-13T14:37:17.845Z,41.38
2022-09-13T14:52:30.411Z,42.53
2022-09-13T15:07:34.156Z,42.48
2022-09-13T15:22:35.627Z,43.51
2022-09-13T15:37:37.917Z,44.86
2022-09-13T15:52:39.378Z,45.25
2022-09-13T16:07:41.189Z,47.44
2022-09-13T16:22:42.687Z,48.38
2022-09-13T16:37:44.624Z,48.88
2022-09-13T16:52:46.094Z,49.67
2022-09-13T17:07:47.569Z,51.27
2022-09-13T17:22:49.031Z,51.52
2022-09-13T17:37:50.498Z,51.54
2022-09-13T17:52:52.039Z,52.64
2022-09-13T18:07:53.472Z,53.41
2022-09-13T18:22:54.958Z,53.99
2022-09-13T18:37:56.420Z,55.00
2022-09-13T18:52:57.896Z,54.78
2022-09-13T19:08:00.199Z,53.91
2022-09-13T19:23:02.873Z,54.10
2022-09-13T19:38:04.340Z,55.09
2022-09-13T19:53:05.811Z,54.63
2022-09-13T20:08:07.510Z,55.35
2022-09-13T20:23:09.504Z,55.12
2022-09-13T20:38:11.920Z,54.81
2022-09-13T20:53:13.906Z,55.75
2022-09-13T21:08:34.663Z,55.08
2022-09-13T21:23:39.897Z,54.99
2022-09-13T21:38:41.553Z,64.90
2022-09-13T21:53:43.641Z,66.59
2022-09-13T22:16:13.799Z,72.15
2022-09-13T22:31:20.237Z,73.92
2022-09-13T22:46:23.249Z,76.52
2022-09-13T23:01:27.253Z,75.39
2022-09-13T23:16:30.545Z,79.37
2022-09-13T23:31:33.835Z,77.62
2022-09-13T23:46:35.467Z,78.55
